VTPM

Details ICAO VTPM (MAQ)
Name Tak Mae Sot
Region Thailand
Timezone Asia/Bangkok (UTC+7.0)
Plans Departing 2
Arriving 3
Stats Elevation 690 ft / 210 m (AMSL)
Location 16.699854° 98.545056°
Runways 1
Magnetic Variation 0.664° W
Sunrise 2017-12-10 23:45:51 UTC / 2017-12-11 06:45:51 Local
Sunset 2017-12-11 10:54:58 UTC / 2017-12-11 17:54:58 Local
Advertisement - Login to hide

Runways

ID Width Length Bearing (true) Bearing (mag) Surface Threshold Offset Overrun Length
09 98 ft / 30 m 4,954 ft / 1,510 m 89.12° 89.78° Asphalt 0 ft / 0 m 197 ft / 60 m
27 98 ft / 30 m 4,954 ft / 1,510 m 269.12° 269.78° Asphalt 0 ft / 0 m 197 ft / 60 m

Map

Weather


0- 5 10 15 20 25 30 35+ Temperature / ° C

Clouds and Precipitation
Forecast for 2017-12-11 12:00 UTC. Updated 25 minutes ago

Ground ~20,000 ft ~40,000 ft Winds

METAR

VTPM 110700Z 24003KT 9999 FEW025 33/20 Q1011

TAF

TAF VTPM 110500Z 1106/1206 24005KT 9999 FEW030 BECMG 1122/1124 3000 BR BECMG 1201/1203 9999 NSW

Frequencies

Tower 118.35 MHz TWR
Approach 120.65 MHz APP
Warning: Do not use this data for real-world aviation or navigation. No guarantee of current accuracy is given.